sensor_id;sensor_type;location;lat;lon;timestamp;P1;durP1;ratioP1;P2;durP2;ratioP2
17451;SDS011;8843;48.838;9.324;2023-06-26T00:01:03;8.07;;;6.10;;
17451;SDS011;8843;48.838;9.324;2023-06-26T00:03:31;7.63;;;5.77;;
17451;SDS011;8843;48.838;9.324;2023-06-26T00:05:58;7.20;;;5.77;;
17451;SDS011;8843;48.838;9.324;2023-06-26T00:08:27;7.00;;;6.30;;
17451;SDS011;8843;48.838;9.324;2023-06-26T00:10:55;7.33;;;6.03;;
17451;SDS011;8843;48.838;9.324;2023-06-26T00:13:22;6.70;;;5.53;;
17451;SDS011;8843;48.838;9.324;2023-06-26T00:15:49;7.90;;;6.20;;
17451;SDS011;8843;48.838;9.324;2023-06-26T00:18:16;7.00;;;6.30;;
17451;SDS011;8843;48.838;9.324;2023-06-26T00:20:43;6.57;;;5.50;;
17451;SDS011;8843;48.838;9.324;2023-06-26T00:23:10;6.50;;;5.83;;
17451;SDS011;8843;48.838;9.324;2023-06-26T00:25:39;6.20;;;5.60;;
17451;SDS011;8843;48.838;9.324;2023-06-26T00:28:06;6.77;;;5.57;;
17451;SDS011;8843;48.838;9.324;2023-06-26T00:30:33;6.37;;;5.20;;
17451;SDS011;8843;48.838;9.324;2023-06-26T00:33:00;8.20;;;5.87;;
17451;SDS011;8843;48.838;9.324;2023-06-26T00:35:27;6.70;;;5.70;;
17451;SDS011;8843;48.838;9.324;2023-06-26T00:37:54;7.47;;;5.60;;
17451;SDS011;8843;48.838;9.324;2023-06-26T00:40:21;6.47;;;5.60;;
17451;SDS011;8843;48.838;9.324;2023-06-26T00:42:49;6.43;;;5.80;;
17451;SDS011;8843;48.838;9.324;2023-06-26T00:45:16;6.67;;;5.97;;
17451;SDS011;8843;48.838;9.324;2023-06-26T00:47:43;7.00;;;5.83;;
17451;SDS011;8843;48.838;9.324;2023-06-26T00:50:10;6.77;;;5.43;;
17451;SDS011;8843;48.838;9.324;2023-06-26T00:52:38;5.80;;;5.17;;
17451;SDS011;8843;48.838;9.324;2023-06-26T00:55:05;6.00;;;5.13;;
17451;SDS011;8843;48.838;9.324;2023-06-26T00:57:32;6.90;;;5.27;;
17451;SDS011;8843;48.838;9.324;2023-06-26T01:00:02;6.83;;;5.47;;
17451;SDS011;8843;48.838;9.324;2023-06-26T01:02:30;6.20;;;5.60;;
17451;SDS011;8843;48.838;9.324;2023-06-26T01:04:58;7.33;;;5.93;;
17451;SDS011;8843;48.838;9.324;2023-06-26T01:07:28;7.07;;;6.37;;
17451;SDS011;8843;48.838;9.324;2023-06-26T01:09:57;7.20;;;6.00;;
17451;SDS011;8843;48.838;9.324;2023-06-26T01:12:25;6.50;;;5.83;;
17451;SDS011;8843;48.838;9.324;2023-06-26T01:14:52;7.73;;;6.17;;
17451;SDS011;8843;48.838;9.324;2023-06-26T01:17:20;6.03;;;5.20;;
17451;SDS011;8843;48.838;9.324;2023-06-26T01:19:48;7.03;;;6.33;;
17451;SDS011;8843;48.838;9.324;2023-06-26T01:22:18;6.53;;;5.80;;
17451;SDS011;8843;48.838;9.324;2023-06-26T01:24:54;7.60;;;6.27;;
17451;SDS011;8843;48.838;9.324;2023-06-26T01:27:44;6.47;;;5.73;;
17451;SDS011;8843;48.838;9.324;2023-06-26T01:30:13;7.17;;;5.80;;
17451;SDS011;8843;48.838;9.324;2023-06-26T01:32:41;7.10;;;6.23;;
17451;SDS011;8843;48.838;9.324;2023-06-26T01:35:09;6.80;;;5.87;;
17451;SDS011;8843;48.838;9.324;2023-06-26T01:37:38;7.30;;;6.03;;
17451;SDS011;8843;48.838;9.324;2023-06-26T01:40:05;7.43;;;6.07;;
17451;SDS011;8843;48.838;9.324;2023-06-26T01:42:33;6.30;;;5.53;;
17451;SDS011;8843;48.838;9.324;2023-06-26T01:45:03;6.67;;;5.97;;
17451;SDS011;8843;48.838;9.324;2023-06-26T01:47:37;7.13;;;5.93;;
17451;SDS011;8843;48.838;9.324;2023-06-26T01:50:09;6.57;;;5.87;;
17451;SDS011;8843;48.838;9.324;2023-06-26T01:52:40;8.10;;;6.17;;
17451;SDS011;8843;48.838;9.324;2023-06-26T01:55:10;6.27;;;5.47;;
17451;SDS011;8843;48.838;9.324;2023-06-26T01:57:42;8.37;;;6.63;;
17451;SDS011;8843;48.838;9.324;2023-06-26T02:00:13;7.00;;;6.00;;
17451;SDS011;8843;48.838;9.324;2023-06-26T02:02:43;7.20;;;6.20;;
17451;SDS011;8843;48.838;9.324;2023-06-26T02:05:10;6.97;;;6.07;;
17451;SDS011;8843;48.838;9.324;2023-06-26T02:07:37;6.80;;;5.93;;
17451;SDS011;8843;48.838;9.324;2023-06-26T02:10:05;7.07;;;5.80;;
17451;SDS011;8843;48.838;9.324;2023-06-26T02:12:34;7.30;;;6.50;;
17451;SDS011;8843;48.838;9.324;2023-06-26T02:15:01;6.27;;;5.53;;
17451;SDS011;8843;48.838;9.324;2023-06-26T02:17:30;7.20;;;5.87;;
17451;SDS011;8843;48.838;9.324;2023-06-26T02:19:57;9.83;;;6.43;;
17451;SDS011;8843;48.838;9.324;2023-06-26T02:22:24;7.33;;;6.07;;
17451;SDS011;8843;48.838;9.324;2023-06-26T02:24:51;7.57;;;6.10;;
17451;SDS011;8843;48.838;9.324;2023-06-26T02:27:18;6.93;;;6.13;;
17451;SDS011;8843;48.838;9.324;2023-06-26T02:29:44;7.10;;;6.27;;
17451;SDS011;8843;48.838;9.324;2023-06-26T02:32:11;8.20;;;6.10;;
17451;SDS011;8843;48.838;9.324;2023-06-26T02:34:39;8.27;;;6.00;;
17451;SDS011;8843;48.838;9.324;2023-06-26T02:37:06;7.97;;;6.40;;
17451;SDS011;8843;48.838;9.324;2023-06-26T02:39:33;7.07;;;6.07;;
17451;SDS011;8843;48.838;9.324;2023-06-26T02:42:00;7.47;;;6.27;;
17451;SDS011;8843;48.838;9.324;2023-06-26T02:44:27;7.57;;;5.90;;
17451;SDS011;8843;48.838;9.324;2023-06-26T02:46:54;6.53;;;5.93;;
17451;SDS011;8843;48.838;9.324;2023-06-26T02:49:21;8.43;;;6.20;;
17451;SDS011;8843;48.838;9.324;2023-06-26T02:51:49;7.27;;;6.27;;
17451;SDS011;8843;48.838;9.324;2023-06-26T02:54:16;7.83;;;5.80;;
17451;SDS011;8843;48.838;9.324;2023-06-26T02:56:43;6.67;;;5.97;;
17451;SDS011;8843;48.838;9.324;2023-06-26T02:59:10;6.73;;;6.00;;
17451;SDS011;8843;48.838;9.324;2023-06-26T03:01:37;7.23;;;6.13;;
17451;SDS011;8843;48.838;9.324;2023-06-26T03:04:04;7.70;;;5.70;;
17451;SDS011;8843;48.838;9.324;2023-06-26T03:06:30;6.27;;;5.53;;
17451;SDS011;8843;48.838;9.324;2023-06-26T03:08:59;9.03;;;5.93;;
17451;SDS011;8843;48.838;9.324;2023-06-26T03:11:26;7.40;;;6.27;;
17451;SDS011;8843;48.838;9.324;2023-06-26T03:13:52;7.33;;;5.70;;
17451;SDS011;8843;48.838;9.324;2023-06-26T03:16:19;6.73;;;6.03;;
17451;SDS011;8843;48.838;9.324;2023-06-26T03:18:46;6.53;;;5.83;;
17451;SDS011;8843;48.838;9.324;2023-06-26T03:21:13;7.07;;;6.30;;
17451;SDS011;8843;48.838;9.324;2023-06-26T03:23:40;6.80;;;5.90;;
17451;SDS011;8843;48.838;9.324;2023-06-26T03:26:08;7.50;;;5.80;;
17451;SDS011;8843;48.838;9.324;2023-06-26T03:28:35;7.37;;;5.57;;
17451;SDS011;8843;48.838;9.324;2023-06-26T03:31:02;8.83;;;6.60;;
17451;SDS011;8843;48.838;9.324;2023-06-26T03:33:29;8.20;;;6.40;;
17451;SDS011;8843;48.838;9.324;2023-06-26T03:35:56;8.23;;;6.67;;
17451;SDS011;8843;48.838;9.324;2023-06-26T03:38:24;8.83;;;5.93;;
17451;SDS011;8843;48.838;9.324;2023-06-26T03:40:52;8.80;;;6.57;;
17451;SDS011;8843;48.838;9.324;2023-06-26T03:43:20;8.67;;;6.77;;
17451;SDS011;8843;48.838;9.324;2023-06-26T03:45:47;7.60;;;6.17;;
17451;SDS011;8843;48.838;9.324;2023-06-26T03:48:13;6.77;;;5.83;;
17451;SDS011;8843;48.838;9.324;2023-06-26T03:50:40;7.33;;;6.00;;
17451;SDS011;8843;48.838;9.324;2023-06-26T03:53:07;9.03;;;6.20;;
17451;SDS011;8843;48.838;9.324;2023-06-26T03:55:34;7.17;;;6.37;;
17451;SDS011;8843;48.838;9.324;2023-06-26T03:58:01;10.27;;;6.50;;
17451;SDS011;8843;48.838;9.324;2023-06-26T04:00:29;7.10;;;6.40;;
17451;SDS011;8843;48.838;9.324;2023-06-26T04:02:57;7.20;;;6.50;;
17451;SDS011;8843;48.838;9.324;2023-06-26T04:05:23;7.13;;;5.93;;
17451;SDS011;8843;48.838;9.324;2023-06-26T04:07:50;7.43;;;6.17;;
17451;SDS011;8843;48.838;9.324;2023-06-26T04:10:17;8.27;;;6.23;;
17451;SDS011;8843;48.838;9.324;2023-06-26T04:12:45;10.23;;;6.63;;
17451;SDS011;8843;48.838;9.324;2023-06-26T04:15:13;8.53;;;6.90;;
17451;SDS011;8843;48.838;9.324;2023-06-26T04:17:41;8.80;;;7.13;;
17451;SDS011;8843;48.838;9.324;2023-06-26T04:20:08;7.93;;;6.17;;
17451;SDS011;8843;48.838;9.324;2023-06-26T04:22:35;6.83;;;5.80;;
17451;SDS011;8843;48.838;9.324;2023-06-26T04:25:02;7.73;;;6.93;;
17451;SDS011;8843;48.838;9.324;2023-06-26T04:27:30;8.80;;;6.63;;
17451;SDS011;8843;48.838;9.324;2023-06-26T04:29:56;7.97;;;6.20;;
17451;SDS011;8843;48.838;9.324;2023-06-26T04:32:23;9.03;;;6.73;;
17451;SDS011;8843;48.838;9.324;2023-06-26T04:34:52;9.37;;;6.80;;
17451;SDS011;8843;48.838;9.324;2023-06-26T04:37:19;10.03;;;6.67;;
17451;SDS011;8843;48.838;9.324;2023-06-26T04:39:45;7.43;;;6.63;;
17451;SDS011;8843;48.838;9.324;2023-06-26T04:42:12;11.20;;;7.23;;
17451;SDS011;8843;48.838;9.324;2023-06-26T04:44:39;7.53;;;6.30;;
17451;SDS011;8843;48.838;9.324;2023-06-26T04:47:07;8.97;;;6.50;;
17451;SDS011;8843;48.838;9.324;2023-06-26T04:49:34;8.97;;;6.97;;
17451;SDS011;8843;48.838;9.324;2023-06-26T04:52:02;8.03;;;6.60;;
17451;SDS011;8843;48.838;9.324;2023-06-26T04:54:29;8.40;;;7.33;;
17451;SDS011;8843;48.838;9.324;2023-06-26T04:56:56;8.17;;;6.70;;
17451;SDS011;8843;48.838;9.324;2023-06-26T04:59:24;8.63;;;6.60;;
17451;SDS011;8843;48.838;9.324;2023-06-26T05:01:51;8.67;;;6.83;;
17451;SDS011;8843;48.838;9.324;2023-06-26T05:04:18;9.27;;;6.90;;
17451;SDS011;8843;48.838;9.324;2023-06-26T05:06:45;7.87;;;6.33;;
17451;SDS011;8843;48.838;9.324;2023-06-26T05:09:13;8.47;;;6.53;;
17451;SDS011;8843;48.838;9.324;2023-06-26T05:11:40;7.83;;;6.77;;
17451;SDS011;8843;48.838;9.324;2023-06-26T05:14:07;7.47;;;6.50;;
17451;SDS011;8843;48.838;9.324;2023-06-26T05:16:34;7.97;;;6.73;;
17451;SDS011;8843;48.838;9.324;2023-06-26T05:19:01;7.23;;;6.43;;
17451;SDS011;8843;48.838;9.324;2023-06-26T05:21:30;6.73;;;6.03;;
17451;SDS011;8843;48.838;9.324;2023-06-26T05:23:57;8.33;;;6.53;;
17451;SDS011;8843;48.838;9.324;2023-06-26T05:26:26;8.30;;;6.40;;
17451;SDS011;8843;48.838;9.324;2023-06-26T05:28:54;8.70;;;7.10;;
17451;SDS011;8843;48.838;9.324;2023-06-26T05:31:21;9.00;;;6.43;;
17451;SDS011;8843;48.838;9.324;2023-06-26T05:33:49;7.43;;;6.40;;
17451;SDS011;8843;48.838;9.324;2023-06-26T05:36:17;7.03;;;6.33;;
17451;SDS011;8843;48.838;9.324;2023-06-26T05:38:46;10.07;;;6.97;;
17451;SDS011;8843;48.838;9.324;2023-06-26T05:41:17;6.67;;;5.97;;
17451;SDS011;8843;48.838;9.324;2023-06-26T05:43:47;7.67;;;6.57;;
17451;SDS011;8843;48.838;9.324;2023-06-26T05:46:14;6.90;;;6.07;;
17451;SDS011;8843;48.838;9.324;2023-06-26T05:48:41;8.40;;;6.10;;
17451;SDS011;8843;48.838;9.324;2023-06-26T05:51:09;8.77;;;6.60;;
17451;SDS011;8843;48.838;9.324;2023-06-26T05:53:36;7.63;;;6.23;;
17451;SDS011;8843;48.838;9.324;2023-06-26T05:56:03;8.57;;;6.77;;
17451;SDS011;8843;48.838;9.324;2023-06-26T05:58:30;9.10;;;7.07;;
17451;SDS011;8843;48.838;9.324;2023-06-26T06:01:00;7.17;;;6.00;;
17451;SDS011;8843;48.838;9.324;2023-06-26T06:03:27;7.87;;;6.40;;
17451;SDS011;8843;48.838;9.324;2023-06-26T06:05:54;9.23;;;7.07;;
17451;SDS011;8843;48.838;9.324;2023-06-26T06:08:21;7.17;;;6.07;;
17451;SDS011;8843;48.838;9.324;2023-06-26T06:10:48;9.07;;;6.33;;
17451;SDS011;8843;48.838;9.324;2023-06-26T06:13:15;8.40;;;6.80;;
17451;SDS011;8843;48.838;9.324;2023-06-26T06:15:41;8.83;;;6.00;;
17451;SDS011;8843;48.838;9.324;2023-06-26T06:18:10;7.50;;;6.13;;
17451;SDS011;8843;48.838;9.324;2023-06-26T06:20:36;8.00;;;6.43;;
17451;SDS011;8843;48.838;9.324;2023-06-26T06:23:03;7.17;;;5.80;;
17451;SDS011;8843;48.838;9.324;2023-06-26T06:25:31;7.77;;;5.83;;
17451;SDS011;8843;48.838;9.324;2023-06-26T06:27:58;9.07;;;5.77;;
17451;SDS011;8843;48.838;9.324;2023-06-26T06:30:25;7.53;;;5.87;;
17451;SDS011;8843;48.838;9.324;2023-06-26T06:32:53;6.70;;;5.57;;
17451;SDS011;8843;48.838;9.324;2023-06-26T06:35:21;7.63;;;5.77;;
17451;SDS011;8843;48.838;9.324;2023-06-26T06:37:48;6.80;;;5.53;;
17451;SDS011;8843;48.838;9.324;2023-06-26T06:40:15;8.70;;;6.03;;
17451;SDS011;8843;48.838;9.324;2023-06-26T06:42:42;7.63;;;5.50;;
17451;SDS011;8843;48.838;9.324;2023-06-26T06:45:09;6.67;;;5.97;;
17451;SDS011;8843;48.838;9.324;2023-06-26T06:47:36;7.60;;;5.73;;
17451;SDS011;8843;48.838;9.324;2023-06-26T06:50:03;6.10;;;5.50;;
17451;SDS011;8843;48.838;9.324;2023-06-26T06:52:36;6.93;;;5.60;;
17451;SDS011;8843;48.838;9.324;2023-06-26T06:55:03;7.37;;;6.33;;
17451;SDS011;8843;48.838;9.324;2023-06-26T06:57:33;7.13;;;5.97;;
17451;SDS011;8843;48.838;9.324;2023-06-26T07:00:02;6.57;;;5.90;;
17451;SDS011;8843;48.838;9.324;2023-06-26T07:02:33;9.67;;;5.07;;
17451;SDS011;8843;48.838;9.324;2023-06-26T07:05:00;8.70;;;6.27;;
17451;SDS011;8843;48.838;9.324;2023-06-26T07:07:30;7.20;;;6.17;;
17451;SDS011;8843;48.838;9.324;2023-06-26T07:10:00;6.40;;;5.73;;
17451;SDS011;8843;48.838;9.324;2023-06-26T07:12:29;13.63;;;6.10;;
17451;SDS011;8843;48.838;9.324;2023-06-26T07:14:56;7.67;;;5.40;;
17451;SDS011;8843;48.838;9.324;2023-06-26T07:17:23;7.83;;;6.33;;
17451;SDS011;8843;48.838;9.324;2023-06-26T07:19:50;9.80;;;6.30;;
17451;SDS011;8843;48.838;9.324;2023-06-26T07:22:17;7.17;;;5.77;;
17451;SDS011;8843;48.838;9.324;2023-06-26T07:24:45;10.10;;;7.03;;
17451;SDS011;8843;48.838;9.324;2023-06-26T07:27:14;8.03;;;6.07;;
17451;SDS011;8843;48.838;9.324;2023-06-26T07:29:40;7.80;;;6.10;;
17451;SDS011;8843;48.838;9.324;2023-06-26T07:32:08;7.87;;;5.83;;
17451;SDS011;8843;48.838;9.324;2023-06-26T07:34:34;7.37;;;6.40;;
17451;SDS011;8843;48.838;9.324;2023-06-26T07:37:01;9.07;;;6.70;;
17451;SDS011;8843;48.838;9.324;2023-06-26T07:39:28;7.33;;;5.87;;
17451;SDS011;8843;48.838;9.324;2023-06-26T07:41:56;8.77;;;6.77;;
17451;SDS011;8843;48.838;9.324;2023-06-26T07:44:25;9.10;;;6.03;;
17451;SDS011;8843;48.838;9.324;2023-06-26T07:46:52;10.00;;;6.13;;
17451;SDS011;8843;48.838;9.324;2023-06-26T07:49:19;7.50;;;6.10;;
17451;SDS011;8843;48.838;9.324;2023-06-26T07:51:46;7.27;;;6.07;;
17451;SDS011;8843;48.838;9.324;2023-06-26T07:54:13;8.97;;;6.13;;
17451;SDS011;8843;48.838;9.324;2023-06-26T07:56:52;6.43;;;5.77;;
17451;SDS011;8843;48.838;9.324;2023-06-26T07:59:20;7.60;;;5.77;;
17451;SDS011;8843;48.838;9.324;2023-06-26T08:01:49;8.37;;;6.17;;
17451;SDS011;8843;48.838;9.324;2023-06-26T08:04:17;8.00;;;6.00;;
17451;SDS011;8843;48.838;9.324;2023-06-26T08:06:47;6.37;;;5.43;;
17451;SDS011;8843;48.838;9.324;2023-06-26T08:09:14;6.47;;;5.50;;
17451;SDS011;8843;48.838;9.324;2023-06-26T08:11:41;8.97;;;5.03;;
17451;SDS011;8843;48.838;9.324;2023-06-26T08:14:08;8.97;;;5.70;;
17451;SDS011;8843;48.838;9.324;2023-06-26T08:16:35;6.10;;;5.50;;
17451;SDS011;8843;48.838;9.324;2023-06-26T08:19:03;7.77;;;5.87;;
17451;SDS011;8843;48.838;9.324;2023-06-26T08:21:30;8.70;;;5.50;;
17451;SDS011;8843;48.838;9.324;2023-06-26T08:23:56;7.47;;;5.30;;
17451;SDS011;8843;48.838;9.324;2023-06-26T08:26:23;8.23;;;5.67;;
17451;SDS011;8843;48.838;9.324;2023-06-26T08:28:50;6.47;;;5.50;;
17451;SDS011;8843;48.838;9.324;2023-06-26T08:31:17;8.13;;;6.13;;
17451;SDS011;8843;48.838;9.324;2023-06-26T08:33:44;8.20;;;5.30;;
17451;SDS011;8843;48.838;9.324;2023-06-26T08:36:12;7.93;;;5.33;;
17451;SDS011;8843;48.838;9.324;2023-06-26T08:38:39;8.23;;;5.60;;
17451;SDS011;8843;48.838;9.324;2023-06-26T08:41:06;5.97;;;4.97;;
17451;SDS011;8843;48.838;9.324;2023-06-26T08:43:34;7.70;;;5.20;;
17451;SDS011;8843;48.838;9.324;2023-06-26T08:46:01;7.87;;;4.83;;
17451;SDS011;8843;48.838;9.324;2023-06-26T08:48:29;6.80;;;4.20;;
17451;SDS011;8843;48.838;9.324;2023-06-26T08:50:58;6.63;;;5.30;;
17451;SDS011;8843;48.838;9.324;2023-06-26T08:53:29;6.60;;;4.73;;
17451;SDS011;8843;48.838;9.324;2023-06-26T08:56:04;5.70;;;5.07;;
17451;SDS011;8843;48.838;9.324;2023-06-26T08:58:33;5.97;;;5.17;;
17451;SDS011;8843;48.838;9.324;2023-06-26T09:01:01;7.07;;;4.87;;
17451;SDS011;8843;48.838;9.324;2023-06-26T09:03:30;8.07;;;5.33;;
17451;SDS011;8843;48.838;9.324;2023-06-26T09:05:58;6.60;;;4.97;;
17451;SDS011;8843;48.838;9.324;2023-06-26T09:08:25;6.20;;;4.67;;
17451;SDS011;8843;48.838;9.324;2023-06-26T09:10:53;6.10;;;5.23;;
17451;SDS011;8843;48.838;9.324;2023-06-26T09:13:20;5.13;;;4.23;;
17451;SDS011;8843;48.838;9.324;2023-06-26T09:15:47;5.50;;;5.00;;
17451;SDS011;8843;48.838;9.324;2023-06-26T09:18:16;5.20;;;4.70;;
17451;SDS011;8843;48.838;9.324;2023-06-26T09:20:44;7.17;;;4.90;;
17451;SDS011;8843;48.838;9.324;2023-06-26T09:23:11;4.93;;;4.43;;
17451;SDS011;8843;48.838;9.324;2023-06-26T09:25:39;6.50;;;5.43;;
17451;SDS011;8843;48.838;9.324;2023-06-26T09:28:08;8.03;;;5.27;;
17451;SDS011;8843;48.838;9.324;2023-06-26T09:30:37;5.03;;;4.53;;
17451;SDS011;8843;48.838;9.324;2023-06-26T09:33:13;5.60;;;4.90;;
17451;SDS011;8843;48.838;9.324;2023-06-26T09:35:40;6.00;;;4.67;;
17451;SDS011;8843;48.838;9.324;2023-06-26T09:38:07;6.40;;;5.00;;
17451;SDS011;8843;48.838;9.324;2023-06-26T09:40:34;4.33;;;3.93;;
17451;SDS011;8843;48.838;9.324;2023-06-26T09:43:04;6.70;;;4.83;;
17451;SDS011;8843;48.838;9.324;2023-06-26T09:45:33;7.30;;;5.07;;
17451;SDS011;8843;48.838;9.324;2023-06-26T09:48:01;6.50;;;4.87;;
17451;SDS011;8843;48.838;9.324;2023-06-26T09:50:29;6.17;;;4.93;;
17451;SDS011;8843;48.838;9.324;2023-06-26T09:52:59;5.10;;;4.57;;
17451;SDS011;8843;48.838;9.324;2023-06-26T09:55:34;7.53;;;5.40;;
17451;SDS011;8843;48.838;9.324;2023-06-26T09:58:01;7.97;;;4.50;;
17451;SDS011;8843;48.838;9.324;2023-06-26T10:00:30;4.57;;;4.13;;
17451;SDS011;8843;48.838;9.324;2023-06-26T10:02:58;8.93;;;4.43;;
17451;SDS011;8843;48.838;9.324;2023-06-26T10:05:26;5.87;;;4.30;;
17451;SDS011;8843;48.838;9.324;2023-06-26T10:07:53;6.40;;;4.20;;
17451;SDS011;8843;48.838;9.324;2023-06-26T10:10:21;4.80;;;4.03;;
17451;SDS011;8843;48.838;9.324;2023-06-26T10:12:51;6.07;;;4.50;;
17451;SDS011;8843;48.838;9.324;2023-06-26T10:15:23;7.30;;;4.30;;
17451;SDS011;8843;48.838;9.324;2023-06-26T10:17:53;5.20;;;4.70;;
17451;SDS011;8843;48.838;9.324;2023-06-26T10:20:23;7.27;;;4.43;;
17451;SDS011;8843;48.838;9.324;2023-06-26T10:22:52;5.80;;;4.97;;
17451;SDS011;8843;48.838;9.324;2023-06-26T10:25:21;7.70;;;4.83;;
17451;SDS011;8843;48.838;9.324;2023-06-26T10:27:51;7.70;;;4.87;;
17451;SDS011;8843;48.838;9.324;2023-06-26T10:30:22;5.43;;;4.53;;
17451;SDS011;8843;48.838;9.324;2023-06-26T10:32:52;5.30;;;4.50;;
17451;SDS011;8843;48.838;9.324;2023-06-26T10:35:21;8.53;;;4.50;;
17451;SDS011;8843;48.838;9.324;2023-06-26T10:37:49;5.67;;;4.93;;
17451;SDS011;8843;48.838;9.324;2023-06-26T10:40:21;5.83;;;5.13;;
17451;SDS011;8843;48.838;9.324;2023-06-26T10:42:51;6.63;;;5.53;;
17451;SDS011;8843;48.838;9.324;2023-06-26T10:45:31;6.27;;;4.90;;
17451;SDS011;8843;48.838;9.324;2023-06-26T10:48:00;6.67;;;4.90;;
17451;SDS011;8843;48.838;9.324;2023-06-26T10:50:28;8.00;;;5.27;;
17451;SDS011;8843;48.838;9.324;2023-06-26T10:53:10;7.27;;;5.17;;
17451;SDS011;8843;48.838;9.324;2023-06-26T10:55:42;9.60;;;5.40;;
17451;SDS011;8843;48.838;9.324;2023-06-26T10:58:30;7.40;;;5.83;;
17451;SDS011;8843;48.838;9.324;2023-06-26T11:01:17;7.27;;;5.03;;
17451;SDS011;8843;48.838;9.324;2023-06-26T11:03:48;7.23;;;5.33;;
17451;SDS011;8843;48.838;9.324;2023-06-26T11:06:27;6.10;;;5.50;;
17451;SDS011;8843;48.838;9.324;2023-06-26T11:08:59;5.53;;;5.03;;
17451;SDS011;8843;48.838;9.324;2023-06-26T11:14:24;7.70;;;6.00;;
17451;SDS011;8843;48.838;9.324;2023-06-26T11:16:52;8.27;;;5.33;;
17451;SDS011;8843;48.838;9.324;2023-06-26T11:19:21;6.37;;;5.60;;
17451;SDS011;8843;48.838;9.324;2023-06-26T11:21:48;9.70;;;6.23;;
17451;SDS011;8843;48.838;9.324;2023-06-26T11:24:17;8.07;;;5.83;;
17451;SDS011;8843;48.838;9.324;2023-06-26T11:26:44;7.13;;;5.43;;
17451;SDS011;8843;48.838;9.324;2023-06-26T11:29:12;5.67;;;4.93;;
17451;SDS011;8843;48.838;9.324;2023-06-26T11:31:39;6.03;;;5.10;;
17451;SDS011;8843;48.838;9.324;2023-06-26T11:34:08;5.60;;;5.07;;
17451;SDS011;8843;48.838;9.324;2023-06-26T11:36:37;9.13;;;5.33;;
17451;SDS011;8843;48.838;9.324;2023-06-26T11:39:04;11.50;;;6.23;;
17451;SDS011;8843;48.838;9.324;2023-06-26T11:41:34;7.30;;;5.60;;
17451;SDS011;8843;48.838;9.324;2023-06-26T11:44:02;5.70;;;5.10;;
17451;SDS011;8843;48.838;9.324;2023-06-26T11:46:30;8.47;;;5.63;;
17451;SDS011;8843;48.838;9.324;2023-06-26T11:48:57;6.00;;;5.40;;
17451;SDS011;8843;48.838;9.324;2023-06-26T11:51:26;6.40;;;5.20;;
17451;SDS011;8843;48.838;9.324;2023-06-26T11:53:53;7.40;;;5.40;;
17451;SDS011;8843;48.838;9.324;2023-06-26T11:56:20;7.13;;;5.53;;
17451;SDS011;8843;48.838;9.324;2023-06-26T11:58:59;7.50;;;5.83;;
17451;SDS011;8843;48.838;9.324;2023-06-26T12:01:27;9.00;;;5.47;;
17451;SDS011;8843;48.838;9.324;2023-06-26T12:03:58;5.60;;;5.10;;
17451;SDS011;8843;48.838;9.324;2023-06-26T12:06:28;5.93;;;5.33;;
17451;SDS011;8843;48.838;9.324;2023-06-26T12:08:55;5.83;;;5.20;;
17451;SDS011;8843;48.838;9.324;2023-06-26T12:11:23;11.77;;;5.40;;
17451;SDS011;8843;48.838;9.324;2023-06-26T12:13:51;8.00;;;5.13;;
17451;SDS011;8843;48.838;9.324;2023-06-26T12:16:20;5.87;;;5.27;;
17451;SDS011;8843;48.838;9.324;2023-06-26T12:18:47;7.37;;;5.33;;
17451;SDS011;8843;48.838;9.324;2023-06-26T12:21:43;8.23;;;5.50;;
17451;SDS011;8843;48.838;9.324;2023-06-26T12:24:13;7.37;;;5.27;;
17451;SDS011;8843;48.838;9.324;2023-06-26T12:26:41;7.93;;;5.83;;
17451;SDS011;8843;48.838;9.324;2023-06-26T12:29:10;7.63;;;5.50;;
17451;SDS011;8843;48.838;9.324;2023-06-26T12:31:40;7.80;;;5.00;;
17451;SDS011;8843;48.838;9.324;2023-06-26T12:34:09;7.03;;;5.90;;
17451;SDS011;8843;48.838;9.324;2023-06-26T12:36:40;6.83;;;5.47;;
17451;SDS011;8843;48.838;9.324;2023-06-26T12:39:09;7.37;;;5.10;;
17451;SDS011;8843;48.838;9.324;2023-06-26T12:41:43;11.37;;;5.43;;
17451;SDS011;8843;48.838;9.324;2023-06-26T12:44:18;9.37;;;5.27;;
17451;SDS011;8843;48.838;9.324;2023-06-26T12:46:47;6.17;;;5.57;;
17451;SDS011;8843;48.838;9.324;2023-06-26T12:49:15;6.43;;;5.47;;
17451;SDS011;8843;48.838;9.324;2023-06-26T12:51:42;7.93;;;5.73;;
17451;SDS011;8843;48.838;9.324;2023-06-26T12:54:09;6.70;;;5.67;;
17451;SDS011;8843;48.838;9.324;2023-06-26T12:56:36;11.20;;;5.80;;
17451;SDS011;8843;48.838;9.324;2023-06-26T12:59:03;7.80;;;5.40;;
17451;SDS011;8843;48.838;9.324;2023-06-26T13:01:30;6.90;;;5.80;;
17451;SDS011;8843;48.838;9.324;2023-06-26T13:03:59;6.33;;;5.70;;
17451;SDS011;8843;48.838;9.324;2023-06-26T13:06:26;7.77;;;5.30;;
17451;SDS011;8843;48.838;9.324;2023-06-26T13:08:53;8.07;;;5.43;;
17451;SDS011;8843;48.838;9.324;2023-06-26T13:11:20;10.43;;;5.10;;
17451;SDS011;8843;48.838;9.324;2023-06-26T13:13:47;7.30;;;5.40;;
17451;SDS011;8843;48.838;9.324;2023-06-26T13:16:14;9.93;;;4.70;;
17451;SDS011;8843;48.838;9.324;2023-06-26T13:18:43;8.47;;;4.90;;
17451;SDS011;8843;48.838;9.324;2023-06-26T13:21:12;8.10;;;5.57;;
17451;SDS011;8843;48.838;9.324;2023-06-26T13:23:39;8.47;;;5.70;;
17451;SDS011;8843;48.838;9.324;2023-06-26T13:26:06;9.17;;;5.10;;
17451;SDS011;8843;48.838;9.324;2023-06-26T13:28:33;5.77;;;4.97;;
17451;SDS011;8843;48.838;9.324;2023-06-26T13:31:00;6.67;;;4.50;;
17451;SDS011;8843;48.838;9.324;2023-06-26T13:33:27;6.20;;;5.00;;
17451;SDS011;8843;48.838;9.324;2023-06-26T13:35:54;9.83;;;4.70;;
17451;SDS011;8843;48.838;9.324;2023-06-26T13:38:22;5.20;;;4.60;;
17451;SDS011;8843;48.838;9.324;2023-06-26T13:40:50;7.10;;;4.80;;
17451;SDS011;8843;48.838;9.324;2023-06-26T13:43:18;5.33;;;4.57;;
17451;SDS011;8843;48.838;9.324;2023-06-26T13:45:46;7.43;;;4.23;;
17451;SDS011;8843;48.838;9.324;2023-06-26T13:48:13;5.50;;;4.20;;
17451;SDS011;8843;48.838;9.324;2023-06-26T13:50:40;6.37;;;4.37;;
17451;SDS011;8843;48.838;9.324;2023-06-26T13:53:07;7.50;;;4.83;;
17451;SDS011;8843;48.838;9.324;2023-06-26T13:55:36;5.23;;;4.60;;
17451;SDS011;8843;48.838;9.324;2023-06-26T13:58:03;5.90;;;4.90;;
17451;SDS011;8843;48.838;9.324;2023-06-26T14:00:30;7.00;;;4.43;;
17451;SDS011;8843;48.838;9.324;2023-06-26T14:02:58;4.50;;;4.10;;
17451;SDS011;8843;48.838;9.324;2023-06-26T14:05:25;4.93;;;4.40;;
17451;SDS011;8843;48.838;9.324;2023-06-26T14:07:52;4.57;;;3.70;;
17451;SDS011;8843;48.838;9.324;2023-06-26T14:10:20;4.47;;;3.70;;
17451;SDS011;8843;48.838;9.324;2023-06-26T14:12:48;6.90;;;4.13;;
17451;SDS011;8843;48.838;9.324;2023-06-26T14:15:15;6.73;;;4.00;;
17451;SDS011;8843;48.838;9.324;2023-06-26T14:17:43;4.73;;;3.83;;
17451;SDS011;8843;48.838;9.324;2023-06-26T14:20:10;5.30;;;4.17;;
17451;SDS011;8843;48.838;9.324;2023-06-26T14:22:38;4.97;;;4.27;;
17451;SDS011;8843;48.838;9.324;2023-06-26T14:25:05;5.03;;;3.70;;
17451;SDS011;8843;48.838;9.324;2023-06-26T14:27:33;3.67;;;3.23;;
17451;SDS011;8843;48.838;9.324;2023-06-26T14:30:01;5.13;;;3.90;;
17451;SDS011;8843;48.838;9.324;2023-06-26T14:32:28;6.27;;;3.50;;
17451;SDS011;8843;48.838;9.324;2023-06-26T14:34:55;6.63;;;3.13;;
17451;SDS011;8843;48.838;9.324;2023-06-26T14:37:22;3.50;;;3.20;;
17451;SDS011;8843;48.838;9.324;2023-06-26T14:39:50;4.93;;;3.40;;
17451;SDS011;8843;48.838;9.324;2023-06-26T14:42:17;3.83;;;3.00;;
17451;SDS011;8843;48.838;9.324;2023-06-26T14:44:44;3.07;;;2.57;;
17451;SDS011;8843;48.838;9.324;2023-06-26T14:47:13;5.47;;;3.00;;
17451;SDS011;8843;48.838;9.324;2023-06-26T14:49:40;5.97;;;3.27;;
17451;SDS011;8843;48.838;9.324;2023-06-26T14:52:07;4.00;;;3.37;;
17451;SDS011;8843;48.838;9.324;2023-06-26T14:54:34;4.03;;;3.00;;
17451;SDS011;8843;48.838;9.324;2023-06-26T14:57:01;4.77;;;3.60;;
17451;SDS011;8843;48.838;9.324;2023-06-26T14:59:28;7.50;;;3.13;;
17451;SDS011;8843;48.838;9.324;2023-06-26T15:01:55;3.43;;;3.03;;
17451;SDS011;8843;48.838;9.324;2023-06-26T15:04:23;3.27;;;2.97;;
17451;SDS011;8843;48.838;9.324;2023-06-26T15:06:50;5.50;;;3.23;;
17451;SDS011;8843;48.838;9.324;2023-06-26T15:09:18;6.00;;;3.17;;